Terminal Aerodrome Forecast
Issued by NWS Cleveland, OH

Home | Current Version | Previous Version | Text Only | Print | Product List | Glossary Off
Versions: 1 2 3 4 5 6 7 8 9 10 11 12 13 14 15 16 17 18

000
FTUS41 KCLE 010300 AAA
TAFYNG
TAF AMD
KYNG 010323Z 0103/0124 20005KT P6SM BKN005
      TEMPO 0103/0106 3SM BR SCT005
     FM010600 21005KT 3SM BR OVC005
     FM011600 20012KT 5SM BR OVC012=

USA.gov is the U.S. government's official web portal to all federal, state and local government web resources and services.